sensor_id;sensor_type;location;lat;lon;timestamp;P1;durP1;ratioP1;P2;durP2;ratioP2
22565;SDS011;11449;51.330;19.378;2023-04-10T00:03:33;119.00;;;41.20;;
22565;SDS011;11449;51.330;19.378;2023-04-10T00:08:40;117.90;;;41.90;;
22565;SDS011;11449;51.330;19.378;2023-04-10T00:13:48;120.10;;;41.20;;
22565;SDS011;11449;51.330;19.378;2023-04-10T00:18:55;118.80;;;42.80;;
22565;SDS011;11449;51.330;19.378;2023-04-10T00:24:03;123.10;;;42.10;;
22565;SDS011;11449;51.330;19.378;2023-04-10T00:29:11;115.20;;;40.80;;
22565;SDS011;11449;51.330;19.378;2023-04-10T00:34:19;130.10;;;45.20;;
22565;SDS011;11449;51.330;19.378;2023-04-10T00:39:27;130.90;;;44.00;;
22565;SDS011;11449;51.330;19.378;2023-04-10T00:44:34;115.20;;;42.00;;
22565;SDS011;11449;51.330;19.378;2023-04-10T00:49:43;122.90;;;42.20;;
22565;SDS011;11449;51.330;19.378;2023-04-10T00:54:51;154.10;;;46.10;;
22565;SDS011;11449;51.330;19.378;2023-04-10T00:59:59;149.00;;;45.30;;
22565;SDS011;11449;51.330;19.378;2023-04-10T01:05:08;173.40;;;49.90;;
22565;SDS011;11449;51.330;19.378;2023-04-10T01:10:37;149.30;;;47.30;;
22565;SDS011;11449;51.330;19.378;2023-04-10T01:15:48;144.70;;;48.00;;
22565;SDS011;11449;51.330;19.378;2023-04-10T01:20:59;178.20;;;49.40;;
22565;SDS011;11449;51.330;19.378;2023-04-10T01:26:09;162.30;;;52.30;;
22565;SDS011;11449;51.330;19.378;2023-04-10T01:31:26;191.10;;;46.20;;
22565;SDS011;11449;51.330;19.378;2023-04-10T01:36:35;199.90;;;53.00;;
22565;SDS011;11449;51.330;19.378;2023-04-10T01:41:44;183.10;;;55.90;;
22565;SDS011;11449;51.330;19.378;2023-04-10T01:46:54;181.00;;;50.10;;
22565;SDS011;11449;51.330;19.378;2023-04-10T01:52:02;207.10;;;51.80;;
22565;SDS011;11449;51.330;19.378;2023-04-10T01:57:13;165.00;;;49.60;;
22565;SDS011;11449;51.330;19.378;2023-04-10T02:02:31;153.50;;;49.70;;
22565;SDS011;11449;51.330;19.378;2023-04-10T02:08:25;202.40;;;50.50;;
22565;SDS011;11449;51.330;19.378;2023-04-10T02:18:18;254.80;;;44.90;;
22565;SDS011;11449;51.330;19.378;2023-04-10T02:23:28;135.70;;;39.60;;
22565;SDS011;11449;51.330;19.378;2023-04-10T02:28:36;199.80;;;47.70;;
22565;SDS011;11449;51.330;19.378;2023-04-10T02:33:44;156.60;;;52.00;;
22565;SDS011;11449;51.330;19.378;2023-04-10T02:38:52;171.70;;;49.20;;
22565;SDS011;11449;51.330;19.378;2023-04-10T02:44:00;189.70;;;53.80;;
22565;SDS011;11449;51.330;19.378;2023-04-10T02:49:08;171.30;;;52.80;;
22565;SDS011;11449;51.330;19.378;2023-04-10T02:54:15;173.20;;;58.20;;
22565;SDS011;11449;51.330;19.378;2023-04-10T02:59:23;143.20;;;47.70;;
22565;SDS011;11449;51.330;19.378;2023-04-10T03:04:32;273.90;;;52.50;;
22565;SDS011;11449;51.330;19.378;2023-04-10T03:09:40;205.10;;;51.10;;
22565;SDS011;11449;51.330;19.378;2023-04-10T03:14:48;221.00;;;52.70;;
22565;SDS011;11449;51.330;19.378;2023-04-10T03:19:55;242.70;;;51.60;;
22565;SDS011;11449;51.330;19.378;2023-04-10T03:25:05;209.90;;;48.30;;
22565;SDS011;11449;51.330;19.378;2023-04-10T03:30:13;182.00;;;45.20;;
22565;SDS011;11449;51.330;19.378;2023-04-10T03:35:22;212.00;;;48.60;;
22565;SDS011;11449;51.330;19.378;2023-04-10T03:40:30;249.00;;;46.40;;
22565;SDS011;11449;51.330;19.378;2023-04-10T03:45:42;156.40;;;39.60;;
22565;SDS011;11449;51.330;19.378;2023-04-10T03:50:50;271.40;;;43.20;;
22565;SDS011;11449;51.330;19.378;2023-04-10T03:55:58;225.80;;;41.40;;
22565;SDS011;11449;51.330;19.378;2023-04-10T04:01:06;178.10;;;38.00;;
22565;SDS011;11449;51.330;19.378;2023-04-10T04:06:34;176.20;;;41.20;;
22565;SDS011;11449;51.330;19.378;2023-04-10T04:11:51;179.00;;;37.40;;
22565;SDS011;11449;51.330;19.378;2023-04-10T04:17:20;146.40;;;39.80;;
22565;SDS011;11449;51.330;19.378;2023-04-10T04:22:37;169.90;;;41.90;;
22565;SDS011;11449;51.330;19.378;2023-04-10T04:28:15;167.50;;;38.80;;
22565;SDS011;11449;51.330;19.378;2023-04-10T04:33:45;218.10;;;43.80;;
22565;SDS011;11449;51.330;19.378;2023-04-10T04:39:19;171.90;;;41.30;;
22565;SDS011;11449;51.330;19.378;2023-04-10T04:44:40;181.30;;;43.40;;
22565;SDS011;11449;51.330;19.378;2023-04-10T04:49:57;254.10;;;45.20;;
22565;SDS011;11449;51.330;19.378;2023-04-10T04:55:23;237.40;;;45.00;;
22565;SDS011;11449;51.330;19.378;2023-04-10T05:00:40;193.50;;;43.50;;
22565;SDS011;11449;51.330;19.378;2023-04-10T05:06:14;167.90;;;43.40;;
22565;SDS011;11449;51.330;19.378;2023-04-10T05:11:44;191.80;;;55.30;;
22565;SDS011;11449;51.330;19.378;2023-04-10T05:22:42;195.40;;;68.70;;
22565;SDS011;11449;51.330;19.378;2023-04-10T05:28:12;206.00;;;81.60;;
22565;SDS011;11449;51.330;19.378;2023-04-10T05:33:35;126.70;;;44.40;;
22565;SDS011;11449;51.330;19.378;2023-04-10T05:39:01;159.90;;;42.10;;
22565;SDS011;11449;51.330;19.378;2023-04-10T05:44:26;126.90;;;40.60;;
22565;SDS011;11449;51.330;19.378;2023-04-10T05:49:40;105.80;;;37.40;;
22565;SDS011;11449;51.330;19.378;2023-04-10T05:55:23;159.60;;;38.60;;
22565;SDS011;11449;51.330;19.378;2023-04-10T06:00:57;111.50;;;35.50;;
22565;SDS011;11449;51.330;19.378;2023-04-10T06:06:27;111.50;;;37.30;;
22565;SDS011;11449;51.330;19.378;2023-04-10T06:11:36;127.20;;;38.80;;
22565;SDS011;11449;51.330;19.378;2023-04-10T06:16:44;117.80;;;38.60;;
22565;SDS011;11449;51.330;19.378;2023-04-10T06:21:52;127.50;;;40.80;;
22565;SDS011;11449;51.330;19.378;2023-04-10T06:27:00;140.70;;;50.60;;
22565;SDS011;11449;51.330;19.378;2023-04-10T06:32:08;122.60;;;39.30;;
22565;SDS011;11449;51.330;19.378;2023-04-10T06:37:16;100.70;;;36.10;;
22565;SDS011;11449;51.330;19.378;2023-04-10T06:42:24;95.60;;;34.40;;
22565;SDS011;11449;51.330;19.378;2023-04-10T06:47:36;111.80;;;37.30;;
22565;SDS011;11449;51.330;19.378;2023-04-10T06:52:44;86.30;;;30.60;;
22565;SDS011;11449;51.330;19.378;2023-04-10T06:57:52;96.60;;;31.90;;
22565;SDS011;11449;51.330;19.378;2023-04-10T07:03:01;93.00;;;30.10;;
22565;SDS011;11449;51.330;19.378;2023-04-10T07:08:09;64.70;;;37.80;;
22565;SDS011;11449;51.330;19.378;2023-04-10T07:13:17;55.90;;;34.30;;
22565;SDS011;11449;51.330;19.378;2023-04-10T07:18:24;57.60;;;35.40;;
22565;SDS011;11449;51.330;19.378;2023-04-10T07:23:32;54.00;;;33.10;;
22565;SDS011;11449;51.330;19.378;2023-04-10T07:28:39;55.00;;;32.50;;
22565;SDS011;11449;51.330;19.378;2023-04-10T07:33:47;51.70;;;30.70;;
22565;SDS011;11449;51.330;19.378;2023-04-10T07:38:55;55.90;;;31.10;;
22565;SDS011;11449;51.330;19.378;2023-04-10T07:44:03;47.20;;;30.80;;
22565;SDS011;11449;51.330;19.378;2023-04-10T07:49:11;48.90;;;31.60;;
22565;SDS011;11449;51.330;19.378;2023-04-10T07:54:19;48.40;;;30.70;;
22565;SDS011;11449;51.330;19.378;2023-04-10T07:59:26;43.20;;;26.70;;
22565;SDS011;11449;51.330;19.378;2023-04-10T08:04:35;56.10;;;35.20;;
22565;SDS011;11449;51.330;19.378;2023-04-10T08:09:42;46.30;;;28.40;;
22565;SDS011;11449;51.330;19.378;2023-04-10T08:14:50;43.70;;;29.80;;
22565;SDS011;11449;51.330;19.378;2023-04-10T08:19:58;232.80;;;116.60;;
22565;SDS011;11449;51.330;19.378;2023-04-10T08:25:05;295.40;;;122.60;;
22565;SDS011;11449;51.330;19.378;2023-04-10T08:30:13;102.40;;;34.80;;
22565;SDS011;11449;51.330;19.378;2023-04-10T08:35:21;147.30;;;77.90;;
22565;SDS011;11449;51.330;19.378;2023-04-10T08:40:29;76.60;;;29.80;;
22565;SDS011;11449;51.330;19.378;2023-04-10T08:45:39;78.70;;;30.00;;
22565;SDS011;11449;51.330;19.378;2023-04-10T08:50:46;94.70;;;33.80;;
22565;SDS011;11449;51.330;19.378;2023-04-10T08:55:56;84.20;;;30.00;;
22565;SDS011;11449;51.330;19.378;2023-04-10T09:01:04;86.90;;;28.20;;
22565;SDS011;11449;51.330;19.378;2023-04-10T09:06:12;79.20;;;27.20;;
22565;SDS011;11449;51.330;19.378;2023-04-10T09:11:20;79.90;;;27.60;;
22565;SDS011;11449;51.330;19.378;2023-04-10T09:16:28;78.70;;;26.60;;
22565;SDS011;11449;51.330;19.378;2023-04-10T09:21:36;74.60;;;31.80;;
22565;SDS011;11449;51.330;19.378;2023-04-10T09:26:44;100.40;;;36.30;;
22565;SDS011;11449;51.330;19.378;2023-04-10T09:31:52;92.70;;;29.50;;
22565;SDS011;11449;51.330;19.378;2023-04-10T09:37:00;151.80;;;71.90;;
22565;SDS011;11449;51.330;19.378;2023-04-10T09:42:08;150.60;;;74.70;;
22565;SDS011;11449;51.330;19.378;2023-04-10T09:47:17;174.60;;;94.70;;
22565;SDS011;11449;51.330;19.378;2023-04-10T09:57:33;172.20;;;89.60;;
22565;SDS011;11449;51.330;19.378;2023-04-10T10:02:41;91.20;;;29.00;;
22565;SDS011;11449;51.330;19.378;2023-04-10T10:07:49;83.10;;;24.40;;
22565;SDS011;11449;51.330;19.378;2023-04-10T10:13:01;329.30;;;200.70;;
22565;SDS011;11449;51.330;19.378;2023-04-10T10:18:18;97.80;;;38.10;;
22565;SDS011;11449;51.330;19.378;2023-04-10T10:23:27;226.20;;;145.10;;
22565;SDS011;11449;51.330;19.378;2023-04-10T10:28:35;72.70;;;20.30;;
22565;SDS011;11449;51.330;19.378;2023-04-10T10:33:43;58.10;;;16.30;;
22565;SDS011;11449;51.330;19.378;2023-04-10T10:39:00;110.70;;;32.70;;
22565;SDS011;11449;51.330;19.378;2023-04-10T10:44:14;385.00;;;234.10;;
22565;SDS011;11449;51.330;19.378;2023-04-10T10:49:49;16.10;;;12.40;;
22565;SDS011;11449;51.330;19.378;2023-04-10T10:54:51;212.70;;;123.60;;
22565;SDS011;11449;51.330;19.378;2023-04-10T10:59:58;247.30;;;155.80;;
22565;SDS011;11449;51.330;19.378;2023-04-10T11:05:01;554.60;;;507.10;;
22565;SDS011;11449;51.330;19.378;2023-04-10T11:10:10;428.50;;;389.20;;
22565;SDS011;11449;51.330;19.378;2023-04-10T11:15:20;16.80;;;11.40;;
22565;SDS011;11449;51.330;19.378;2023-04-10T11:20:29;17.40;;;10.30;;
22565;SDS011;11449;51.330;19.378;2023-04-10T11:25:46;21.40;;;11.30;;
22565;SDS011;11449;51.330;19.378;2023-04-10T11:30:55;330.90;;;227.30;;
22565;SDS011;11449;51.330;19.378;2023-04-10T11:36:03;105.20;;;40.10;;
22565;SDS011;11449;51.330;19.378;2023-04-10T11:41:11;13.50;;;9.60;;
22565;SDS011;11449;51.330;19.378;2023-04-10T11:46:18;14.80;;;9.70;;
22565;SDS011;11449;51.330;19.378;2023-04-10T11:51:26;11.90;;;8.80;;
22565;SDS011;11449;51.330;19.378;2023-04-10T11:56:35;12.30;;;9.40;;
22565;SDS011;11449;51.330;19.378;2023-04-10T12:01:43;18.20;;;11.30;;
22565;SDS011;11449;51.330;19.378;2023-04-10T12:06:51;14.10;;;9.20;;
22565;SDS011;11449;51.330;19.378;2023-04-10T12:12:05;81.80;;;26.60;;
22565;SDS011;11449;51.330;19.378;2023-04-10T12:17:13;276.60;;;191.40;;
22565;SDS011;11449;51.330;19.378;2023-04-10T12:22:21;197.00;;;94.20;;
22565;SDS011;11449;51.330;19.378;2023-04-10T12:27:28;80.00;;;24.90;;
22565;SDS011;11449;51.330;19.378;2023-04-10T12:32:36;57.50;;;15.60;;
22565;SDS011;11449;51.330;19.378;2023-04-10T12:37:47;63.30;;;15.70;;
22565;SDS011;11449;51.330;19.378;2023-04-10T12:42:55;90.80;;;19.00;;
22565;SDS011;11449;51.330;19.378;2023-04-10T12:48:03;107.70;;;17.70;;
22565;SDS011;11449;51.330;19.378;2023-04-10T12:53:11;80.30;;;19.30;;
22565;SDS011;11449;51.330;19.378;2023-04-10T12:58:20;64.00;;;10.80;;
22565;SDS011;11449;51.330;19.378;2023-04-10T13:03:27;9.20;;;6.90;;
22565;SDS011;11449;51.330;19.378;2023-04-10T13:08:35;9.80;;;6.70;;
22565;SDS011;11449;51.330;19.378;2023-04-10T13:13:43;9.90;;;6.40;;
22565;SDS011;11449;51.330;19.378;2023-04-10T13:18:50;8.90;;;6.40;;
22565;SDS011;11449;51.330;19.378;2023-04-10T13:23:58;9.50;;;6.90;;
22565;SDS011;11449;51.330;19.378;2023-04-10T13:29:06;7.90;;;6.20;;
22565;SDS011;11449;51.330;19.378;2023-04-10T13:34:13;41.80;;;8.20;;
22565;SDS011;11449;51.330;19.378;2023-04-10T13:39:21;57.50;;;11.10;;
22565;SDS011;11449;51.330;19.378;2023-04-10T13:44:29;51.50;;;9.70;;
22565;SDS011;11449;51.330;19.378;2023-04-10T13:49:36;51.90;;;9.90;;
22565;SDS011;11449;51.330;19.378;2023-04-10T13:54:44;54.90;;;11.50;;
22565;SDS011;11449;51.330;19.378;2023-04-10T13:59:52;70.40;;;16.40;;
22565;SDS011;11449;51.330;19.378;2023-04-10T14:05:00;56.60;;;12.60;;
22565;SDS011;11449;51.330;19.378;2023-04-10T14:10:07;75.50;;;14.90;;
22565;SDS011;11449;51.330;19.378;2023-04-10T14:15:15;97.00;;;13.10;;
22565;SDS011;11449;51.330;19.378;2023-04-10T14:20:23;56.70;;;8.90;;
22565;SDS011;11449;51.330;19.378;2023-04-10T14:25:31;73.40;;;9.70;;
22565;SDS011;11449;51.330;19.378;2023-04-10T14:30:38;69.30;;;9.20;;
22565;SDS011;11449;51.330;19.378;2023-04-10T14:35:46;64.90;;;8.70;;
22565;SDS011;11449;51.330;19.378;2023-04-10T14:40:54;53.60;;;8.00;;
22565;SDS011;11449;51.330;19.378;2023-04-10T14:46:01;59.90;;;10.10;;
22565;SDS011;11449;51.330;19.378;2023-04-10T14:51:09;89.50;;;14.00;;
22565;SDS011;11449;51.330;19.378;2023-04-10T14:56:19;69.50;;;11.50;;
22565;SDS011;11449;51.330;19.378;2023-04-10T15:01:27;53.30;;;10.30;;
22565;SDS011;11449;51.330;19.378;2023-04-10T15:06:34;67.80;;;11.70;;
22565;SDS011;11449;51.330;19.378;2023-04-10T15:11:42;62.40;;;11.70;;
22565;SDS011;11449;51.330;19.378;2023-04-10T15:16:50;65.70;;;11.80;;
22565;SDS011;11449;51.330;19.378;2023-04-10T15:21:57;62.90;;;11.20;;
22565;SDS011;11449;51.330;19.378;2023-04-10T15:27:06;60.40;;;12.70;;
22565;SDS011;11449;51.330;19.378;2023-04-10T15:32:13;58.40;;;11.70;;
22565;SDS011;11449;51.330;19.378;2023-04-10T15:37:21;70.00;;;14.60;;
22565;SDS011;11449;51.330;19.378;2023-04-10T15:42:32;77.90;;;14.00;;
22565;SDS011;11449;51.330;19.378;2023-04-10T15:47:40;85.10;;;14.50;;
22565;SDS011;11449;51.330;19.378;2023-04-10T15:52:48;59.30;;;11.80;;
22565;SDS011;11449;51.330;19.378;2023-04-10T15:57:56;69.40;;;12.80;;
22565;SDS011;11449;51.330;19.378;2023-04-10T16:03:04;67.60;;;13.40;;
22565;SDS011;11449;51.330;19.378;2023-04-10T16:08:12;90.50;;;17.10;;
22565;SDS011;11449;51.330;19.378;2023-04-10T16:13:19;93.80;;;16.00;;
22565;SDS011;11449;51.330;19.378;2023-04-10T16:18:27;70.00;;;15.90;;
22565;SDS011;11449;51.330;19.378;2023-04-10T16:23:35;79.40;;;16.80;;
22565;SDS011;11449;51.330;19.378;2023-04-10T16:28:43;107.50;;;22.80;;
22565;SDS011;11449;51.330;19.378;2023-04-10T16:33:50;76.20;;;17.80;;
22565;SDS011;11449;51.330;19.378;2023-04-10T16:38:58;76.90;;;17.90;;
22565;SDS011;11449;51.330;19.378;2023-04-10T16:44:06;66.80;;;15.90;;
22565;SDS011;11449;51.330;19.378;2023-04-10T16:49:14;93.80;;;29.40;;
22565;SDS011;11449;51.330;19.378;2023-04-10T16:54:22;93.00;;;20.70;;
22565;SDS011;11449;51.330;19.378;2023-04-10T16:59:30;84.60;;;22.20;;
22565;SDS011;11449;51.330;19.378;2023-04-10T17:04:37;66.10;;;20.60;;
22565;SDS011;11449;51.330;19.378;2023-04-10T17:09:45;78.30;;;22.30;;
22565;SDS011;11449;51.330;19.378;2023-04-10T17:14:53;73.40;;;22.60;;
22565;SDS011;11449;51.330;19.378;2023-04-10T17:20:00;106.50;;;26.00;;
22565;SDS011;11449;51.330;19.378;2023-04-10T17:25:08;75.60;;;22.70;;
22565;SDS011;11449;51.330;19.378;2023-04-10T17:30:16;62.20;;;18.00;;
22565;SDS011;11449;51.330;19.378;2023-04-10T17:35:24;70.90;;;17.40;;
22565;SDS011;11449;51.330;19.378;2023-04-10T17:40:32;53.20;;;18.80;;
22565;SDS011;11449;51.330;19.378;2023-04-10T17:45:40;58.40;;;21.70;;
22565;SDS011;11449;51.330;19.378;2023-04-10T17:50:48;48.30;;;20.90;;
22565;SDS011;11449;51.330;19.378;2023-04-10T17:55:57;43.00;;;19.60;;
22565;SDS011;11449;51.330;19.378;2023-04-10T18:01:05;33.50;;;16.70;;
22565;SDS011;11449;51.330;19.378;2023-04-10T18:06:13;36.80;;;22.10;;
22565;SDS011;11449;51.330;19.378;2023-04-10T18:11:21;45.80;;;22.00;;
22565;SDS011;11449;51.330;19.378;2023-04-10T18:16:30;47.30;;;21.00;;
22565;SDS011;11449;51.330;19.378;2023-04-10T18:21:38;43.60;;;20.00;;
22565;SDS011;11449;51.330;19.378;2023-04-10T18:26:48;42.20;;;14.70;;
22565;SDS011;11449;51.330;19.378;2023-04-10T18:31:56;48.50;;;18.20;;
22565;SDS011;11449;51.330;19.378;2023-04-10T18:37:04;39.10;;;16.70;;
22565;SDS011;11449;51.330;19.378;2023-04-10T18:42:12;32.70;;;15.50;;
22565;SDS011;11449;51.330;19.378;2023-04-10T18:47:19;39.70;;;18.90;;
22565;SDS011;11449;51.330;19.378;2023-04-10T18:52:27;19.90;;;10.90;;
22565;SDS011;11449;51.330;19.378;2023-04-10T18:57:35;23.70;;;13.10;;
22565;SDS011;11449;51.330;19.378;2023-04-10T19:02:43;19.80;;;10.30;;
22565;SDS011;11449;51.330;19.378;2023-04-10T19:07:51;28.40;;;12.40;;
22565;SDS011;11449;51.330;19.378;2023-04-10T19:12:58;30.70;;;12.80;;
22565;SDS011;11449;51.330;19.378;2023-04-10T19:18:06;34.10;;;12.10;;
22565;SDS011;11449;51.330;19.378;2023-04-10T19:23:14;34.80;;;10.40;;
22565;SDS011;11449;51.330;19.378;2023-04-10T19:28:22;48.80;;;12.30;;
22565;SDS011;11449;51.330;19.378;2023-04-10T19:33:29;69.00;;;22.00;;
22565;SDS011;11449;51.330;19.378;2023-04-10T19:38:37;118.10;;;40.80;;
22565;SDS011;11449;51.330;19.378;2023-04-10T19:43:47;154.90;;;44.40;;
22565;SDS011;11449;51.330;19.378;2023-04-10T19:48:55;129.80;;;34.20;;
22565;SDS011;11449;51.330;19.378;2023-04-10T19:54:02;117.40;;;35.00;;
22565;SDS011;11449;51.330;19.378;2023-04-10T19:59:10;137.60;;;39.80;;
22565;SDS011;11449;51.330;19.378;2023-04-10T20:04:18;153.30;;;43.30;;
22565;SDS011;11449;51.330;19.378;2023-04-10T20:09:26;200.90;;;73.80;;
22565;SDS011;11449;51.330;19.378;2023-04-10T20:14:33;135.10;;;43.00;;
22565;SDS011;11449;51.330;19.378;2023-04-10T20:19:41;117.70;;;42.60;;
22565;SDS011;11449;51.330;19.378;2023-04-10T20:24:49;122.70;;;36.90;;
22565;SDS011;11449;51.330;19.378;2023-04-10T20:29:56;110.90;;;27.80;;
22565;SDS011;11449;51.330;19.378;2023-04-10T20:35:04;95.40;;;26.10;;
22565;SDS011;11449;51.330;19.378;2023-04-10T20:40:13;86.30;;;22.80;;
22565;SDS011;11449;51.330;19.378;2023-04-10T20:45:21;120.50;;;25.90;;
22565;SDS011;11449;51.330;19.378;2023-04-10T20:50:28;86.60;;;22.90;;
22565;SDS011;11449;51.330;19.378;2023-04-10T20:55:36;108.50;;;26.40;;
22565;SDS011;11449;51.330;19.378;2023-04-10T21:00:45;92.50;;;27.90;;
22565;SDS011;11449;51.330;19.378;2023-04-10T21:05:52;100.10;;;34.00;;
22565;SDS011;11449;51.330;19.378;2023-04-10T21:11:00;111.90;;;38.80;;
22565;SDS011;11449;51.330;19.378;2023-04-10T21:16:07;132.00;;;41.90;;
22565;SDS011;11449;51.330;19.378;2023-04-10T21:21:15;109.70;;;33.30;;
22565;SDS011;11449;51.330;19.378;2023-04-10T21:26:23;108.30;;;32.90;;
22565;SDS011;11449;51.330;19.378;2023-04-10T21:31:30;80.80;;;25.90;;
22565;SDS011;11449;51.330;19.378;2023-04-10T21:36:38;69.60;;;22.40;;
22565;SDS011;11449;51.330;19.378;2023-04-10T21:41:46;76.10;;;24.50;;
22565;SDS011;11449;51.330;19.378;2023-04-10T21:46:54;78.80;;;25.80;;
22565;SDS011;11449;51.330;19.378;2023-04-10T21:52:01;70.50;;;24.80;;
22565;SDS011;11449;51.330;19.378;2023-04-10T21:57:10;72.70;;;23.60;;
22565;SDS011;11449;51.330;19.378;2023-04-10T22:02:18;70.80;;;24.40;;
22565;SDS011;11449;51.330;19.378;2023-04-10T22:07:25;82.40;;;29.40;;
22565;SDS011;11449;51.330;19.378;2023-04-10T22:12:33;92.60;;;30.80;;
22565;SDS011;11449;51.330;19.378;2023-04-10T22:17:41;96.00;;;33.60;;
22565;SDS011;11449;51.330;19.378;2023-04-10T22:22:48;91.00;;;29.50;;
22565;SDS011;11449;51.330;19.378;2023-04-10T22:27:56;123.10;;;42.30;;
22565;SDS011;11449;51.330;19.378;2023-04-10T22:33:04;91.50;;;26.90;;
22565;SDS011;11449;51.330;19.378;2023-04-10T22:38:12;90.50;;;26.30;;
22565;SDS011;11449;51.330;19.378;2023-04-10T22:43:19;84.60;;;23.80;;
22565;SDS011;11449;51.330;19.378;2023-04-10T22:48:27;77.40;;;27.40;;
22565;SDS011;11449;51.330;19.378;2023-04-10T22:53:35;86.00;;;26.20;;
22565;SDS011;11449;51.330;19.378;2023-04-10T22:58:43;101.10;;;28.60;;
22565;SDS011;11449;51.330;19.378;2023-04-10T23:03:50;92.90;;;27.70;;
22565;SDS011;11449;51.330;19.378;2023-04-10T23:09:00;85.10;;;29.50;;
22565;SDS011;11449;51.330;19.378;2023-04-10T23:14:07;84.00;;;29.90;;
22565;SDS011;11449;51.330;19.378;2023-04-10T23:19:15;68.20;;;22.00;;
22565;SDS011;11449;51.330;19.378;2023-04-10T23:24:23;58.70;;;20.20;;
22565;SDS011;11449;51.330;19.378;2023-04-10T23:29:31;69.90;;;18.20;;
22565;SDS011;11449;51.330;19.378;2023-04-10T23:34:39;80.50;;;22.00;;
22565;SDS011;11449;51.330;19.378;2023-04-10T23:39:47;68.20;;;21.90;;
22565;SDS011;11449;51.330;19.378;2023-04-10T23:44:54;90.10;;;28.90;;
22565;SDS011;11449;51.330;19.378;2023-04-10T23:50:02;101.60;;;38.50;;
22565;SDS011;11449;51.330;19.378;2023-04-10T23:55:10;134.40;;;50.00;;
